Time;durP1;ratioP1;P1;durP2;ratioP2;P2;SDS_P1;SDS_P2;PMS_P1;PMS_P2;Temp;Humidity;BMP_temperature;BMP_pressure;BME280_temperature;BME280_humidity;BME280_pressure;Samples;Min_cycle;Max_cycle;Signal;HPM_P1;HPM_P2
2022/01/12 00:02:21;;;;;;;35.53;19.50;;;3.30;99.90;;;;;;5034052;28;20176;-69
2022/01/12 00:04:47;;;;;;;38.10;19.07;;;3.30;99.90;;;;;;5033932;28;20177;-69
2022/01/12 00:07:13;;;;;;;36.37;18.97;;;3.30;99.90;;;;;;5032464;28;20173;-69
2022/01/12 00:09:38;;;;;;;32.87;19.10;;;3.30;99.90;;;;;;5033625;28;20253;-69
2022/01/12 00:12:04;;;;;;;39.37;19.57;;;3.30;99.90;;;;;;5034021;28;20177;-68
2022/01/12 00:14:30;;;;;;;36.83;19.47;;;3.40;99.90;;;;;;5033534;28;20267;-68
2022/01/12 00:16:59;;;;;;;35.47;20.43;;;3.50;99.90;;;;;;5033554;28;20220;-68
2022/01/12 00:19:26;;;;;;;34.27;20.67;;;3.40;99.90;;;;;;5033807;28;20261;-69
2022/01/12 00:21:55;;;;;;;36.40;19.60;;;3.50;99.90;;;;;;5033737;28;20165;-68
2022/01/12 00:24:21;;;;;;;35.00;19.60;;;3.60;99.90;;;;;;5033201;28;20207;-69
2022/01/12 00:35:01;;;;;;;35.17;19.17;;;4.00;99.90;;;;;;5033802;28;20181;-68
2022/01/12 00:37:26;;;;;;;32.50;19.33;;;4.00;99.90;;;;;;5033195;28;20561;-68
2022/01/12 00:39:58;;;;;;;34.60;19.57;;;3.90;99.90;;;;;;5032931;28;20174;-68
2022/01/12 00:42:26;;;;;;;32.83;19.33;;;3.90;99.90;;;;;;5033429;28;20265;-68
2022/01/12 00:44:53;;;;;;;33.53;19.60;;;4.00;99.90;;;;;;5033406;28;20181;-68
2022/01/12 00:47:19;;;;;;;33.10;18.93;;;4.10;99.90;;;;;;5033195;28;20178;-68
2022/01/12 00:49:44;;;;;;;27.70;18.27;;;4.10;99.90;;;;;;5033315;28;20284;-68
2022/01/12 00:52:10;;;;;;;31.13;18.53;;;4.20;99.90;;;;;;5033183;28;20206;-68
2022/01/12 00:54:35;;;;;;;31.27;18.27;;;4.20;99.90;;;;;;5032660;28;20181;-67
2022/01/12 00:57:01;;;;;;;32.83;19.67;;;4.30;99.90;;;;;;5033138;28;20180;-67
2022/01/12 00:59:27;;;;;;;28.23;18.27;;;4.20;99.90;;;;;;5033063;28;20634;-68
2022/01/12 01:01:52;;;;;;;30.77;18.70;;;4.30;99.90;;;;;;5033464;28;20553;-68
2022/01/12 01:04:18;;;;;;;30.53;18.97;;;4.30;99.90;;;;;;5033129;28;20178;-67
2022/01/12 01:06:43;;;;;;;30.47;18.43;;;4.30;99.90;;;;;;5033095;28;20178;-68
2022/01/12 01:09:09;;;;;;;28.40;17.80;;;4.30;99.90;;;;;;5032621;28;20178;-68
2022/01/12 01:11:35;;;;;;;35.33;19.93;;;4.30;99.90;;;;;;5033219;28;20546;-69
2022/01/12 01:14:10;;;;;;;35.23;18.87;;;4.10;99.90;;;;;;5032976;28;20537;-68
2022/01/12 01:27:49;;;;;;;32.90;18.63;;;4.40;99.90;;;;;;5014982;28;20312;-68
2022/01/12 01:30:16;;;;;;;29.43;17.90;;;4.40;99.90;;;;;;5015243;28;20257;-69
2022/01/12 01:32:43;;;;;;;31.90;18.17;;;4.40;99.90;;;;;;5014996;28;20665;-68
2022/01/12 01:35:09;;;;;;;30.73;18.60;;;4.30;99.90;;;;;;5014649;28;20282;-67
2022/01/12 01:37:35;;;;;;;30.20;16.87;;;4.30;99.90;;;;;;5014299;28;20297;-68
2022/01/12 01:40:00;;;;;;;30.83;18.07;;;4.30;99.90;;;;;;5015043;28;20241;-67
2022/01/12 01:42:40;;;;;;;33.63;18.20;;;4.20;99.90;;;;;;5014695;28;20189;-67
2022/01/12 01:53:21;;;;;;;31.57;17.33;;;4.40;99.90;;;;;;5022702;28;20193;-68
2022/01/12 01:55:47;;;;;;;27.73;17.33;;;4.40;99.90;;;;;;5036508;28;20178;-67
2022/01/12 01:58:14;;;;;;;28.80;17.73;;;4.40;99.90;;;;;;5036154;28;20206;-67
2022/01/12 02:00:41;;;;;;;28.83;16.97;;;4.40;99.90;;;;;;5036443;28;20166;-68
2022/01/12 02:03:07;;;;;;;26.90;16.90;;;4.50;99.90;;;;;;5036395;28;20182;-68
2022/01/12 02:05:33;;;;;;;28.90;17.50;;;4.40;99.90;;;;;;5035993;28;20192;-68
2022/01/12 02:08:00;;;;;;;29.70;17.07;;;4.50;99.90;;;;;;5035850;28;20243;-68
2022/01/12 02:10:26;;;;;;;33.17;18.47;;;4.60;99.90;;;;;;5036617;28;20184;-67
2022/01/12 02:12:51;;;;;;;31.00;17.90;;;4.60;99.90;;;;;;5036280;28;20257;-67
2022/01/12 02:15:22;;;;;;;31.23;17.33;;;4.60;99.90;;;;;;5036055;28;20174;-68
2022/01/12 02:18:01;;;;;;;30.60;17.27;;;4.60;99.90;;;;;;5035848;28;20713;-67
2022/01/12 02:37:17;;;;;;;28.13;16.73;;;4.50;99.90;;;;;;5035630;28;20177;-68
2022/01/12 02:39:52;;;;;;;30.23;16.50;;;4.60;99.90;;;;;;5035955;28;20269;-68
2022/01/12 02:42:19;;;;;;;26.87;15.43;;;4.60;99.90;;;;;;5035582;28;20173;-68
2022/01/12 02:51:27;;;;;;;28.93;15.60;;;4.20;99.90;;;;;;5035130;28;20197;-68
2022/01/12 02:55:53;;;;;;;29.43;16.40;;;4.10;99.90;;;;;;5035412;28;20244;-67
2022/01/12 02:58:18;;;;;;;26.27;15.57;;;4.20;99.90;;;;;;5035097;28;20241;-68
2022/01/12 03:03:14;;;;;;;27.63;15.83;;;4.40;99.90;;;;;;5035185;28;20174;-68
2022/01/12 03:05:55;;;;;;;29.17;16.03;;;4.40;99.90;;;;;;5034633;28;20166;-68
2022/01/12 03:08:23;;;;;;;29.20;16.90;;;4.30;99.90;;;;;;5035222;28;20181;-67
2022/01/12 03:10:49;;;;;;;29.50;16.47;;;4.40;99.90;;;;;;5035376;28;20201;-67
2022/01/12 03:13:14;;;;;;;28.97;16.63;;;4.30;99.90;;;;;;5035128;28;20653;-69
2022/01/12 03:15:41;;;;;;;29.40;16.30;;;4.50;99.90;;;;;;5034912;28;20561;-68
2022/01/12 03:18:07;;;;;;;28.60;17.30;;;4.50;99.90;;;;;;5034346;28;20209;-67
2022/01/12 03:20:33;;;;;;;28.17;16.97;;;4.40;99.90;;;;;;5034992;28;20178;-68
2022/01/12 03:22:59;;;;;;;29.17;16.63;;;4.50;99.90;;;;;;5035132;28;20189;-67
2022/01/12 03:25:25;;;;;;;27.37;15.40;;;4.50;99.90;;;;;;5034565;28;20229;-68
2022/01/12 03:27:56;;;;;;;26.43;15.97;;;4.60;99.90;;;;;;5034674;28;20274;-67
2022/01/12 03:30:22;;;;;;;31.33;16.93;;;4.60;99.90;;;;;;5034616;28;20645;-67
2022/01/12 03:33:01;;;;;;;28.13;15.77;;;4.70;99.90;;;;;;5034372;28;20209;-67
2022/01/12 03:35:47;;;;;;;27.77;15.73;;;4.40;99.90;;;;;;5034752;28;20201;-67
2022/01/12 03:38:20;;;;;;;28.90;16.70;;;4.40;99.90;;;;;;5034330;28;20210;-68
2022/01/12 03:40:45;;;;;;;28.47;16.47;;;4.40;99.90;;;;;;5033352;28;20535;-67
2022/01/12 03:43:11;;;;;;;27.73;16.90;;;4.30;99.90;;;;;;5034330;28;20182;-68
2022/01/12 03:45:37;;;;;;;28.00;16.43;;;4.40;99.90;;;;;;5034130;28;20173;-68
2022/01/12 03:48:02;;;;;;;29.40;16.93;;;4.30;99.90;;;;;;5033551;28;20177;-68
2022/01/12 03:50:28;;;;;;;29.20;17.93;;;4.30;99.90;;;;;;5034145;28;20560;-69
2022/01/12 03:52:54;;;;;;;30.90;17.83;;;4.30;99.90;;;;;;5033099;28;20664;-68
2022/01/12 03:55:19;;;;;;;31.50;17.77;;;4.20;99.90;;;;;;5034051;28;20653;-67
2022/01/12 03:57:45;;;;;;;28.57;17.37;;;4.10;99.90;;;;;;5034021;28;20343;-67
2022/01/12 04:00:11;;;;;;;31.67;18.73;;;4.10;99.90;;;;;;5034153;28;20166;-67
2022/01/12 04:02:39;;;;;;;32.73;19.27;;;4.20;99.90;;;;;;5033510;28;20592;-67
2022/01/12 04:10:17;;;;;;;32.97;18.40;;;4.00;99.90;;;;;;5034374;28;20181;-67
2022/01/12 04:12:43;;;;;;;34.77;18.77;;;3.90;99.90;;;;;;5033876;28;20174;-68
2022/01/12 04:15:08;;;;;;;30.87;18.30;;;3.80;99.90;;;;;;5033331;28;20541;-67
2022/01/12 04:17:34;;;;;;;32.10;18.37;;;3.80;99.90;;;;;;5033016;28;20209;-67
2022/01/12 04:20:02;;;;;;;34.63;18.63;;;3.90;99.90;;;;;;5033821;28;20178;-67
2022/01/12 04:25:12;;;;;;;33.77;18.60;;;3.80;99.90;;;;;;5033505;28;20251;-67
2022/01/12 04:27:39;;;;;;;31.93;18.90;;;3.70;99.90;;;;;;5033480;28;20645;-68
2022/01/12 04:30:05;;;;;;;33.13;19.10;;;3.70;99.90;;;;;;5032012;28;20185;-67
2022/01/12 04:32:35;;;;;;;32.30;18.70;;;3.80;99.90;;;;;;5033099;28;20213;-67
2022/01/12 04:35:01;;;;;;;34.67;19.23;;;3.90;99.90;;;;;;5033229;28;20646;-68
2022/01/12 04:37:26;;;;;;;34.27;19.20;;;3.90;99.90;;;;;;5033084;28;20213;-68
2022/01/12 04:39:52;;;;;;;32.83;19.10;;;3.80;99.90;;;;;;5033442;28;20242;-67
2022/01/12 04:42:17;;;;;;;31.20;18.27;;;3.80;99.90;;;;;;5032970;28;20177;-68
2022/01/12 04:44:46;;;;;;;34.50;19.20;;;3.70;99.90;;;;;;5033039;28;20508;-67
2022/01/12 04:47:27;;;;;;;35.50;18.53;;;3.70;99.90;;;;;;5032439;28;20166;-68
2022/01/12 04:49:52;;;;;;;32.90;19.23;;;3.80;99.90;;;;;;5033265;28;20667;-69
2022/01/12 04:52:18;;;;;;;36.73;19.03;;;3.70;99.90;;;;;;5032803;28;20193;-67
2022/01/12 04:54:44;;;;;;;33.37;18.47;;;3.80;99.90;;;;;;5032670;28;20174;-68
2022/01/12 04:57:10;;;;;;;36.33;19.67;;;3.80;99.90;;;;;;5032640;28;20188;-68
2022/01/12 04:59:42;;;;;;;36.70;20.17;;;3.70;99.90;;;;;;5032614;28;20185;-67
2022/01/12 05:06:23;;;;;;;36.87;19.93;;;3.80;99.90;;;;;;5033240;28;20181;-67
2022/01/12 05:07:46;;;;;;;34.10;19.90;;;3.80;99.90;;;;;;5033152;28;20284;-68
2022/01/12 05:12:55;;;;;;;33.43;19.13;;;3.90;99.90;;;;;;5032629;28;20177;-69
2022/01/12 05:15:34;;;;;;;38.97;19.87;;;4.00;99.90;;;;;;5032004;28;20256;-66
2022/01/12 05:18:00;;;;;;;37.00;19.37;;;4.00;99.90;;;;;;5032598;28;20209;-68
2022/01/12 05:20:26;;;;;;;34.87;18.90;;;4.10;99.90;;;;;;5032956;28;20174;-68
2022/01/12 05:22:51;;;;;;;40.93;22.00;;;4.00;99.90;;;;;;5032486;28;20185;-68
2022/01/12 05:25:17;;;;;;;39.93;20.67;;;4.00;99.90;;;;;;5032136;28;20704;-68
2022/01/12 05:27:44;;;;;;;43.70;22.60;;;4.10;99.90;;;;;;5032507;28;20676;-68
2022/01/12 05:30:11;;;;;;;38.93;20.63;;;3.90;99.90;;;;;;5032218;28;20170;-68
2022/01/12 05:32:37;;;;;;;40.87;20.37;;;3.90;99.90;;;;;;5032438;28;20185;-68
2022/01/12 05:35:07;;;;;;;38.90;21.00;;;3.90;99.90;;;;;;5032474;28;20265;-68
2022/01/12 05:37:32;;;;;;;38.30;20.73;;;4.00;99.90;;;;;;5032230;28;20565;-67
2022/01/12 05:40:00;;;;;;;38.57;21.17;;;4.00;99.90;;;;;;5032532;28;20181;-68
2022/01/12 05:42:26;;;;;;;39.80;20.97;;;3.90;99.90;;;;;;5032107;28;20173;-67
2022/01/12 05:44:52;;;;;;;37.70;19.93;;;3.90;99.90;;;;;;5032154;28;20174;-68
2022/01/12 05:47:34;;;;;;;40.70;20.57;;;3.90;99.90;;;;;;5032231;28;20189;-67
2022/01/12 05:49:59;;;;;;;35.83;20.80;;;4.10;99.90;;;;;;5032247;28;20224;-68
2022/01/12 05:52:25;;;;;;;38.20;20.83;;;4.10;99.90;;;;;;5032008;28;20633;-68
2022/01/12 05:54:50;;;;;;;36.60;21.23;;;4.00;99.90;;;;;;5031857;28;20178;-68
2022/01/12 05:57:16;;;;;;;41.03;21.30;;;4.10;99.90;;;;;;5032213;28;20299;-68
2022/01/12 05:59:42;;;;;;;38.83;20.90;;;4.20;99.90;;;;;;5031517;28;20180;-67
2022/01/12 06:02:07;;;;;;;38.43;21.03;;;4.10;99.90;;;;;;5032103;28;20172;-68
2022/01/12 06:04:33;;;;;;;41.90;22.13;;;4.10;99.90;;;;;;5032003;28;20232;-69
2022/01/12 06:07:01;;;;;;;42.90;21.70;;;4.10;99.90;;;;;;5031922;28;20642;-68
2022/01/12 06:09:27;;;;;;;42.53;22.57;;;4.00;99.90;;;;;;5031678;28;20221;-68
2022/01/12 06:11:53;;;;;;;40.33;21.60;;;4.10;99.90;;;;;;5032273;28;20235;-67
2022/01/12 06:14:20;;;;;;;41.20;23.13;;;4.20;99.90;;;;;;5035483;28;20224;-67
2022/01/12 06:16:46;;;;;;;40.17;21.30;;;4.20;99.90;;;;;;5035435;28;20173;-69
2022/01/12 06:19:12;;;;;;;48.37;22.67;;;4.10;99.90;;;;;;5035158;28;20739;-68
2022/01/12 06:21:37;;;;;;;41.53;22.37;;;4.10;99.90;;;;;;5034914;28;20217;-68
2022/01/12 06:24:03;;;;;;;42.27;21.93;;;4.10;99.90;;;;;;5035135;28;20178;-67
2022/01/12 06:26:29;;;;;;;43.27;21.73;;;4.10;99.90;;;;;;5035111;28;20218;-69
2022/01/12 06:31:37;;;;;;;41.70;22.07;;;4.20;99.90;;;;;;5034938;28;20223;-68
2022/01/12 06:34:03;;;;;;;41.60;21.47;;;4.30;99.90;;;;;;5033726;28;20182;-68
2022/01/12 06:36:29;;;;;;;40.40;22.23;;;4.20;99.90;;;;;;5034821;28;20193;-68
2022/01/12 06:38:54;;;;;;;39.87;21.97;;;4.30;99.90;;;;;;5034155;28;20618;-69
2022/01/12 06:41:20;;;;;;;46.47;22.20;;;4.30;99.90;;;;;;5033902;28;20239;-69
2022/01/12 06:43:46;;;;;;;46.03;22.43;;;4.30;99.90;;;;;;5035390;28;20180;-69
2022/01/12 06:46:15;;;;;;;41.63;21.40;;;4.30;99.90;;;;;;5034646;28;20265;-69
2022/01/12 06:48:41;;;;;;;37.47;21.57;;;4.40;99.90;;;;;;5034354;28;20174;-69
2022/01/12 06:51:06;;;;;;;38.60;20.87;;;4.30;99.90;;;;;;5033483;28;20281;-68
2022/01/12 06:53:35;;;;;;;42.93;22.97;;;4.30;99.90;;;;;;5034867;28;20213;-68
2022/01/12 06:56:01;;;;;;;42.70;23.27;;;4.40;99.90;;;;;;5033479;28;20178;-68
2022/01/12 06:58:27;;;;;;;45.53;22.37;;;4.40;99.90;;;;;;5034352;28;20681;-68
2022/01/12 07:00:52;;;;;;;44.57;22.77;;;4.40;99.90;;;;;;5034250;28;20182;-69
2022/01/12 07:03:18;;;;;;;45.53;22.53;;;4.50;99.90;;;;;;5034039;28;20287;-68
2022/01/12 07:05:43;;;;;;;50.13;22.27;;;4.30;99.90;;;;;;5033536;28;20189;-68
2022/01/12 07:08:09;;;;;;;45.13;22.30;;;4.30;99.90;;;;;;5033312;28;20189;-68
2022/01/12 07:10:35;;;;;;;44.53;22.17;;;4.20;99.90;;;;;;5033775;28;20185;-68
2022/01/12 07:13:00;;;;;;;53.03;23.37;;;4.30;99.90;;;;;;5033610;28;20174;-68
2022/01/12 07:15:26;;;;;;;53.37;23.33;;;4.20;99.90;;;;;;5033755;28;20170;-68
2022/01/12 07:17:52;;;;;;;47.63;23.20;;;4.20;99.90;;;;;;5033711;28;20217;-68
2022/01/12 07:20:17;;;;;;;44.23;23.67;;;4.30;99.90;;;;;;5033628;28;20166;-69
2022/01/12 07:22:43;;;;;;;53.80;24.97;;;4.30;99.90;;;;;;5032640;28;20202;-68
2022/01/12 07:25:09;;;;;;;47.70;24.67;;;4.40;99.90;;;;;;5032162;28;20681;-68
2022/01/12 07:27:34;;;;;;;52.20;25.87;;;4.50;99.90;;;;;;5033262;28;20192;-68
2022/01/12 07:30:00;;;;;;;44.37;24.07;;;4.50;99.90;;;;;;5034142;28;20180;-68
2022/01/12 07:32:27;;;;;;;50.63;25.50;;;4.60;99.90;;;;;;5033496;28;20274;-69
2022/01/12 07:34:53;;;;;;;50.00;25.50;;;4.60;99.90;;;;;;5033972;28;20182;-67
2022/01/12 07:37:19;;;;;;;48.03;24.93;;;4.60;99.90;;;;;;5032322;28;20178;-68
2022/01/12 07:39:48;;;;;;;49.60;24.53;;;4.60;99.90;;;;;;5032440;28;20269;-67
2022/01/12 07:42:14;;;;;;;51.37;25.50;;;4.60;99.90;;;;;;5033514;28;20235;-68
2022/01/12 07:44:40;;;;;;;47.80;24.93;;;4.60;99.90;;;;;;5033960;28;20684;-68
2022/01/12 07:47:05;;;;;;;48.60;25.43;;;4.50;99.90;;;;;;5033108;28;20687;-69
2022/01/12 07:49:33;;;;;;;54.70;25.70;;;4.40;99.90;;;;;;5032564;28;20197;-67
2022/01/12 07:52:00;;;;;;;51.40;25.87;;;4.40;99.90;;;;;;5033316;28;20204;-68
2022/01/12 07:54:26;;;;;;;54.80;26.53;;;4.30;99.90;;;;;;5032965;28;20211;-69
2022/01/12 07:56:52;;;;;;;57.93;27.10;;;4.40;99.90;;;;;;5033416;28;20182;-68
2022/01/12 07:59:17;;;;;;;61.70;27.93;;;4.50;99.90;;;;;;5032646;28;20324;-68
2022/01/12 08:01:43;;;;;;;51.23;26.70;;;4.40;99.90;;;;;;5033404;28;20170;-68
2022/01/12 08:04:08;;;;;;;53.30;25.80;;;4.50;99.90;;;;;;5033431;28;20196;-68
2022/01/12 08:06:34;;;;;;;55.13;26.17;;;4.50;99.90;;;;;;5032447;28;20550;-67
2022/01/12 08:09:00;;;;;;;51.50;26.30;;;4.60;99.90;;;;;;5032522;28;20692;-68
2022/01/12 08:11:25;;;;;;;50.73;27.27;;;4.50;99.90;;;;;;5032718;28;20209;-69
2022/01/12 08:13:52;;;;;;;51.97;25.97;;;4.60;99.90;;;;;;5033153;28;20185;-71
2022/01/12 08:16:18;;;;;;;53.60;25.93;;;4.50;99.90;;;;;;5032900;28;20254;-69
2022/01/12 08:18:44;;;;;;;52.53;26.50;;;4.60;99.90;;;;;;5032564;28;20301;-71
2022/01/12 08:21:09;;;;;;;53.10;26.63;;;4.50;99.90;;;;;;5032852;28;20657;-71
2022/01/12 08:23:35;;;;;;;57.23;26.17;;;4.60;99.90;;;;;;5032794;28;20657;-72
2022/01/12 08:26:01;;;;;;;58.93;28.07;;;4.60;99.90;;;;;;5032709;28;20232;-71
2022/01/12 08:28:26;;;;;;;58.97;28.07;;;4.70;99.90;;;;;;5031521;28;20232;-70
2022/01/12 08:30:52;;;;;;;57.53;27.77;;;4.80;99.90;;;;;;5032690;28;20221;-71
2022/01/12 08:33:17;;;;;;;62.37;27.93;;;4.90;99.90;;;;;;5032717;28;20205;-71
2022/01/12 08:35:43;;;;;;;59.20;27.33;;;4.90;99.90;;;;;;5032291;28;20174;-72
2022/01/12 08:38:09;;;;;;;58.23;27.73;;;4.80;99.90;;;;;;5032415;28;20208;-71
2022/01/12 08:40:38;;;;;;;62.03;27.83;;;4.90;99.90;;;;;;5032888;28;20638;-72
2022/01/12 08:43:04;;;;;;;53.20;26.90;;;5.00;99.90;;;;;;5032242;28;20182;-71
2022/01/12 08:45:30;;;;;;;58.90;27.10;;;4.90;99.90;;;;;;5032963;28;20249;-70
2022/01/12 08:47:56;;;;;;;60.83;27.37;;;5.00;99.90;;;;;;5032395;28;20240;-71
2022/01/12 08:50:22;;;;;;;65.03;28.40;;;5.10;99.90;;;;;;5032278;28;20247;-71
2022/01/12 08:52:48;;;;;;;57.33;27.77;;;5.00;99.90;;;;;;5031445;28;20166;-71
2022/01/12 08:55:17;;;;;;;61.10;27.83;;;4.90;99.90;;;;;;5032785;28;20523;-71
2022/01/12 08:57:43;;;;;;;64.43;27.90;;;5.00;99.90;;;;;;5032418;28;20264;-72
2022/01/12 09:00:10;;;;;;;57.93;28.80;;;5.00;99.90;;;;;;5032366;28;20637;-71
2022/01/12 09:02:36;;;;;;;57.90;28.13;;;5.10;99.90;;;;;;5032599;28;20188;-71
2022/01/12 09:05:03;;;;;;;57.20;26.90;;;5.10;99.90;;;;;;5032151;28;20177;-71
2022/01/12 09:07:28;;;;;;;60.67;29.27;;;5.10;99.90;;;;;;5031504;28;20177;-70
2022/01/12 09:09:54;;;;;;;56.90;27.23;;;5.10;99.90;;;;;;5032403;28;20239;-71
2022/01/12 09:12:19;;;;;;;55.77;27.10;;;5.10;99.90;;;;;;5032469;28;20180;-71
2022/01/12 09:14:45;;;;;;;62.43;28.33;;;5.10;99.90;;;;;;5032154;28;20170;-71
2022/01/12 09:17:15;;;;;;;68.23;28.83;;;5.30;99.90;;;;;;5032171;28;20699;-71
2022/01/12 09:19:41;;;;;;;63.57;29.43;;;5.40;99.90;;;;;;5032386;28;20343;-71
2022/01/12 09:22:06;;;;;;;57.13;28.10;;;5.60;99.90;;;;;;5032114;28;20253;-71
2022/01/12 09:24:32;;;;;;;66.53;30.20;;;5.40;99.90;;;;;;5031495;28;20170;-72
2022/01/12 09:26:57;;;;;;;68.30;31.17;;;5.40;99.90;;;;;;5031778;28;20201;-70
2022/01/12 09:29:23;;;;;;;58.90;28.03;;;5.50;99.90;;;;;;5032258;28;20524;-71
2022/01/12 09:31:49;;;;;;;59.07;28.63;;;5.40;99.90;;;;;;5030703;28;20166;-71
2022/01/12 09:34:15;;;;;;;58.70;28.97;;;5.40;99.90;;;;;;5031755;28;20170;-71
2022/01/12 09:36:41;;;;;;;73.80;31.50;;;5.50;99.90;;;;;;5031789;28;20174;-73
2022/01/12 09:39:08;;;;;;;66.10;30.37;;;5.50;99.90;;;;;;5031520;28;20213;-71
2022/01/12 09:41:33;;;;;;;76.50;31.13;;;5.60;99.90;;;;;;5031927;28;20162;-71
2022/01/12 09:43:59;;;;;;;73.03;31.53;;;5.60;99.90;;;;;;5031709;28;20184;-71
2022/01/12 09:46:26;;;;;;;72.37;31.53;;;5.60;99.90;;;;;;5032160;28;20181;-72
2022/01/12 09:48:53;;;;;;;74.00;33.60;;;5.60;99.90;;;;;;5035572;28;20201;-71
2022/01/12 09:51:18;;;;;;;64.30;31.23;;;5.70;99.90;;;;;;5035235;28;20186;-71
2022/01/12 09:53:44;;;;;;;70.37;32.50;;;5.70;99.90;;;;;;5035759;28;20503;-71
2022/01/12 09:56:30;;;;;;;75.60;31.83;;;5.80;99.90;;;;;;5035752;28;20170;-71
2022/01/12 09:58:59;;;;;;;81.07;33.43;;;5.90;99.90;;;;;;5035141;28;20201;-72
2022/01/12 10:01:29;;;;;;;76.77;34.00;;;5.90;99.90;;;;;;5035640;28;20166;-71
2022/01/12 10:04:18;;;;;;;70.10;31.27;;;6.00;99.90;;;;;;5035443;28;20177;-71
2022/01/12 10:06:49;;;;;;;68.07;32.53;;;6.10;99.90;;;;;;5035471;28;20213;-71
2022/01/12 10:09:16;;;;;;;70.43;32.27;;;5.90;99.90;;;;;;5035308;28;20173;-71
2022/01/12 10:12:00;;;;;;;76.80;32.93;;;5.90;99.90;;;;;;5034992;28;20585;-71
2022/01/12 10:14:38;;;;;;;69.70;31.63;;;6.00;99.90;;;;;;5035447;28;20161;-71
2022/01/12 10:17:03;;;;;;;72.07;31.60;;;6.20;99.90;;;;;;5034991;28;20652;-71
2022/01/12 10:19:31;;;;;;;71.07;31.33;;;6.20;99.90;;;;;;5035186;28;20214;-70
2022/01/12 10:21:59;;;;;;;69.10;32.43;;;6.30;99.90;;;;;;5035439;28;20201;-72
2022/01/12 10:24:26;;;;;;;74.87;32.63;;;6.30;99.90;;;;;;5035492;28;20166;-71
2022/01/12 10:26:52;;;;;;;73.97;31.80;;;6.30;99.90;;;;;;5034896;28;20700;-71
2022/01/12 10:29:21;;;;;;;72.63;33.40;;;6.40;99.90;;;;;;5035047;28;20178;-72
2022/01/12 10:31:52;;;;;;;71.13;31.80;;;6.60;99.90;;;;;;5034654;28;20273;-71
2022/01/12 10:34:24;;;;;;;70.27;32.47;;;6.80;99.90;;;;;;5034046;28;20170;-71
2022/01/12 10:36:51;;;;;;;69.13;32.10;;;6.90;99.90;;;;;;5033366;28;20178;-71
2022/01/12 10:39:19;;;;;;;69.97;30.40;;;6.80;99.90;;;;;;5035017;28;20202;-71
2022/01/12 10:42:08;;;;;;;75.07;32.63;;;6.90;99.90;;;;;;5034880;28;20163;-72
2022/01/12 10:44:37;;;;;;;76.07;33.33;;;6.90;99.90;;;;;;5034756;28;20174;-71
2022/01/12 10:47:04;;;;;;;72.50;32.40;;;7.00;99.90;;;;;;5032842;28;20174;-71
2022/01/12 10:49:33;;;;;;;73.80;32.53;;;7.10;99.90;;;;;;5034239;28;20194;-71
2022/01/12 10:51:59;;;;;;;77.03;32.60;;;7.30;99.90;;;;;;5034641;28;20174;-72
2022/01/12 10:54:24;;;;;;;69.90;32.07;;;7.10;99.90;;;;;;5034613;28;20527;-71
2022/01/12 10:56:50;;;;;;;73.53;33.10;;;7.10;99.90;;;;;;5034728;28;20593;-72
2022/01/12 10:59:17;;;;;;;76.23;32.90;;;6.90;99.90;;;;;;5034076;28;20197;-71
2022/01/12 11:01:43;;;;;;;70.53;33.67;;;7.10;99.90;;;;;;5034519;28;20196;-71
2022/01/12 11:04:10;;;;;;;74.67;35.20;;;7.10;99.90;;;;;;5034223;28;20203;-71
2022/01/12 11:06:36;;;;;;;73.67;33.23;;;7.00;99.90;;;;;;5034440;28;20253;-71
2022/01/12 11:09:03;;;;;;;122.23;59.93;;;6.90;99.90;;;;;;5033551;28;20300;-72
2022/01/12 11:11:29;;;;;;;117.27;57.63;;;6.90;99.90;;;;;;5034756;28;20176;-71
2022/01/12 11:13:55;;;;;;;135.67;71.90;;;6.80;99.90;;;;;;5033604;28;20178;-72
2022/01/12 11:16:23;;;;;;;88.87;37.97;;;6.80;99.90;;;;;;5034015;28;20228;-70
2022/01/12 11:18:50;;;;;;;81.00;34.20;;;6.80;99.90;;;;;;5032927;28;20259;-71
2022/01/12 11:21:33;;;;;;;76.77;34.13;;;7.00;99.90;;;;;;5033952;28;20213;-70
2022/01/12 11:24:00;;;;;;;78.43;33.43;;;7.10;99.90;;;;;;5034324;28;20173;-70
2022/01/12 11:26:29;;;;;;;75.70;33.57;;;7.10;99.90;;;;;;5033422;28;20263;-71
2022/01/12 11:28:55;;;;;;;76.00;34.37;;;7.10;99.90;;;;;;5033722;28;20634;-71
2022/01/12 11:31:26;;;;;;;77.37;34.70;;;7.00;99.90;;;;;;5033430;28;20200;-71
2022/01/12 11:33:52;;;;;;;70.57;33.23;;;7.10;99.90;;;;;;5032451;28;20170;-71
2022/01/12 11:36:17;;;;;;;79.57;35.17;;;7.10;99.90;;;;;;5033729;28;20180;-71
2022/01/12 11:38:50;;;;;;;71.70;32.67;;;7.30;99.90;;;;;;5033291;28;20214;-71
2022/01/12 11:41:35;;;;;;;72.77;33.07;;;7.40;99.90;;;;;;5033747;28;20166;-71
2022/01/12 11:44:01;;;;;;;76.10;33.97;;;7.50;99.90;;;;;;5033357;28;20205;-71
2022/01/12 11:46:39;;;;;;;72.03;32.90;;;7.50;99.90;;;;;;5032236;28;20692;-71
2022/01/12 11:49:05;;;;;;;73.40;32.33;;;7.50;99.90;;;;;;5032067;28;20269;-72
2022/01/12 11:51:44;;;;;;;74.97;34.13;;;7.50;99.90;;;;;;5033554;28;20502;-71
2022/01/12 11:54:15;;;;;;;74.70;33.50;;;7.60;99.90;;;;;;5033485;28;20578;-71
2022/01/12 11:57:19;;;;;;;77.03;35.47;;;7.50;99.90;;;;;;5033354;28;20188;-71
2022/01/12 12:00:01;;;;;;;71.00;33.13;;;7.50;99.90;;;;;;5032481;28;20193;-71
2022/01/12 12:02:34;;;;;;;75.27;32.63;;;7.80;99.90;;;;;;5033067;28;20224;-72
2022/01/12 12:05:02;;;;;;;78.07;33.77;;;7.80;99.90;;;;;;5033208;28;20260;-72
2022/01/12 12:07:28;;;;;;;75.23;33.53;;;7.80;99.90;;;;;;5032988;28;20174;-72
2022/01/12 12:09:57;;;;;;;74.53;33.97;;;7.80;99.90;;;;;;5032196;28;20178;-72
2022/01/12 12:12:26;;;;;;;78.53;34.37;;;7.80;99.90;;;;;;5032570;28;20173;-71
2022/01/12 12:14:54;;;;;;;81.07;35.90;;;7.70;99.90;;;;;;5032515;28;20186;-71
2022/01/12 12:17:21;;;;;;;76.17;35.23;;;7.90;99.90;;;;;;5032302;28;20652;-72
2022/01/12 12:19:52;;;;;;;84.90;35.27;;;7.80;99.90;;;;;;5033283;28;20181;-72
2022/01/12 12:22:22;;;;;;;77.50;34.40;;;8.00;99.90;;;;;;5032833;28;20642;-71
2022/01/12 12:24:54;;;;;;;78.17;35.10;;;7.90;99.90;;;;;;5032667;28;20166;-71
2022/01/12 12:27:22;;;;;;;78.80;34.23;;;7.60;99.90;;;;;;5031949;28;20174;-71
2022/01/12 12:29:49;;;;;;;83.03;35.47;;;7.70;99.90;;;;;;5032402;28;20174;-71
2022/01/12 12:32:16;;;;;;;69.73;32.97;;;7.80;99.90;;;;;;5032364;28;20319;-71
2022/01/12 12:34:44;;;;;;;81.03;34.47;;;7.80;99.90;;;;;;5031781;28;20189;-71
2022/01/12 12:37:13;;;;;;;73.90;34.13;;;7.60;99.90;;;;;;5032544;28;20193;-71
2022/01/12 12:39:42;;;;;;;74.27;33.17;;;7.50;99.90;;;;;;5032630;28;20214;-71
2022/01/12 12:42:19;;;;;;;74.70;32.33;;;7.60;99.90;;;;;;5032598;28;20166;-72
2022/01/12 12:44:47;;;;;;;75.93;32.50;;;7.80;99.90;;;;;;5032101;28;20177;-72
2022/01/12 12:47:21;;;;;;;84.87;33.93;;;7.90;99.90;;;;;;5032516;28;20174;-71
2022/01/12 12:49:51;;;;;;;74.27;33.57;;;7.80;99.90;;;;;;5032188;28;20193;-73
2022/01/12 12:52:30;;;;;;;77.40;35.13;;;7.70;99.90;;;;;;5032413;28;20170;-71
2022/01/12 12:54:59;;;;;;;72.73;32.33;;;7.80;99.90;;;;;;5032198;28;20177;-71
2022/01/12 12:57:26;;;;;;;72.43;33.70;;;7.90;99.90;;;;;;5031838;28;20200;-71
2022/01/12 13:00:06;;;;;;;72.20;33.57;;;8.00;99.90;;;;;;5030470;28;20185;-72
2022/01/12 13:02:44;;;;;;;70.20;31.93;;;7.80;99.90;;;;;;5032674;28;20170;-71
2022/01/12 13:05:19;;;;;;;72.17;30.93;;;7.70;99.90;;;;;;5031819;28;20252;-72
2022/01/12 13:07:47;;;;;;;66.70;29.87;;;7.60;99.90;;;;;;5032463;28;20169;-71
2022/01/12 13:10:23;;;;;;;70.40;30.30;;;7.40;99.90;;;;;;5031967;28;20262;-71
2022/01/12 13:12:55;;;;;;;68.03;28.97;;;7.50;99.90;;;;;;5031843;28;20535;-71
2022/01/12 13:15:34;;;;;;;66.27;30.60;;;7.30;99.90;;;;;;5032262;28;20197;-72
2022/01/12 13:18:09;;;;;;;70.73;30.87;;;7.20;99.90;;;;;;5032278;28;20208;-72
2022/01/12 13:23:22;;;;;;;69.53;30.47;;;7.10;99.90;;;;;;5036040;28;20538;-72
2022/01/12 13:25:49;;;;;;;63.90;28.70;;;7.10;99.90;;;;;;5035765;28;20274;-71
2022/01/12 13:28:19;;;;;;;65.57;29.77;;;7.10;99.90;;;;;;5035585;28;20177;-71
2022/01/12 13:30:53;;;;;;;61.70;28.23;;;7.10;99.90;;;;;;5036048;28;20585;-71
2022/01/12 13:33:24;;;;;;;63.53;30.07;;;7.20;99.90;;;;;;5034722;28;20257;-71
2022/01/12 13:35:50;;;;;;;67.43;30.33;;;7.10;99.90;;;;;;5035992;28;20176;-72
2022/01/12 13:38:32;;;;;;;70.87;31.30;;;7.10;99.90;;;;;;5035925;28;20293;-72
2022/01/12 13:41:13;;;;;;;69.27;32.43;;;7.10;99.90;;;;;;5035816;28;20192;-71
2022/01/12 13:43:40;;;;;;;75.07;33.23;;;7.20;99.90;;;;;;5035501;28;20166;-71
2022/01/12 13:46:18;;;;;;;76.60;33.97;;;6.90;99.90;;;;;;5036255;28;20166;-72
2022/01/12 13:49:21;;;;;;;79.10;34.00;;;6.80;99.90;;;;;;5035192;28;20617;-72
2022/01/12 13:52:01;;;;;;;81.87;33.87;;;6.60;99.90;;;;;;5035992;28;20170;-71
2022/01/12 13:54:33;;;;;;;82.60;33.97;;;6.60;99.90;;;;;;5035302;28;20220;-72
2022/01/12 13:57:00;;;;;;;78.93;34.13;;;6.60;99.90;;;;;;5034999;28;20174;-70